sensor_id;sensor_type;location;lat;lon;timestamp;P1;durP1;ratioP1;P2;durP2;ratioP2
67363;SDS011;54250;45.572;38.086;2024-01-15T00:01:30;1.83;;;0.52;;
67363;SDS011;54250;45.572;38.086;2024-01-15T00:04:14;1.52;;;0.77;;
67363;SDS011;54250;45.572;38.086;2024-01-15T00:06:40;0.40;;;0.40;;
67363;SDS011;54250;45.572;38.086;2024-01-15T00:09:06;0.80;;;0.40;;
67363;SDS011;54250;45.572;38.086;2024-01-15T00:11:32;6.95;;;1.05;;
67363;SDS011;54250;45.572;38.086;2024-01-15T00:13:58;2.38;;;0.52;;
67363;SDS011;54250;45.572;38.086;2024-01-15T00:16:24;0.70;;;0.70;;
67363;SDS011;54250;45.572;38.086;2024-01-15T00:18:50;0.70;;;0.70;;
67363;SDS011;54250;45.572;38.086;2024-01-15T00:21:16;1.45;;;1.10;;
67363;SDS011;54250;45.572;38.086;2024-01-15T00:23:42;1.02;;;0.93;;
67363;SDS011;54250;45.572;38.086;2024-01-15T00:26:11;6.82;;;1.05;;
67363;SDS011;54250;45.572;38.086;2024-01-15T00:28:38;2.00;;;0.98;;
67363;SDS011;54250;45.572;38.086;2024-01-15T00:31:04;1.90;;;0.75;;
67363;SDS011;54250;45.572;38.086;2024-01-15T00:33:30;1.90;;;0.88;;
67363;SDS011;54250;45.572;38.086;2024-01-15T00:35:56;3.17;;;1.10;;
67363;SDS011;54250;45.572;38.086;2024-01-15T00:38:22;1.63;;;1.00;;
67363;SDS011;54250;45.572;38.086;2024-01-15T00:40:48;1.08;;;0.70;;
67363;SDS011;54250;45.572;38.086;2024-01-15T00:43:14;0.95;;;0.90;;
67363;SDS011;54250;45.572;38.086;2024-01-15T00:45:43;3.28;;;0.95;;
67363;SDS011;54250;45.572;38.086;2024-01-15T00:50:54;2.58;;;1.13;;
67363;SDS011;54250;45.572;38.086;2024-01-15T00:53:20;1.15;;;0.68;;
67363;SDS011;54250;45.572;38.086;2024-01-15T00:56:05;1.20;;;0.75;;
67363;SDS011;54250;45.572;38.086;2024-01-15T00:58:31;7.30;;;0.98;;
67363;SDS011;54250;45.572;38.086;2024-01-15T01:00:57;1.48;;;0.63;;
67363;SDS011;54250;45.572;38.086;2024-01-15T01:03:23;2.90;;;1.35;;
67363;SDS011;54250;45.572;38.086;2024-01-15T01:05:49;2.25;;;1.10;;
67363;SDS011;54250;45.572;38.086;2024-01-15T01:08:17;3.50;;;1.75;;
67363;SDS011;54250;45.572;38.086;2024-01-15T01:10:43;1.15;;;0.68;;
67363;SDS011;54250;45.572;38.086;2024-01-15T01:13:09;1.02;;;0.85;;
67363;SDS011;54250;45.572;38.086;2024-01-15T01:15:35;1.88;;;1.13;;
67363;SDS011;54250;45.572;38.086;2024-01-15T01:18:01;2.47;;;1.30;;
67363;SDS011;54250;45.572;38.086;2024-01-15T01:20:27;2.40;;;0.88;;
67363;SDS011;54250;45.572;38.086;2024-01-15T01:22:53;2.47;;;1.77;;
67363;SDS011;54250;45.572;38.086;2024-01-15T01:25:18;2.30;;;1.10;;
67363;SDS011;54250;45.572;38.086;2024-01-15T01:30:28;2.65;;;1.30;;
67363;SDS011;54250;45.572;38.086;2024-01-15T01:32:54;2.38;;;1.33;;
67363;SDS011;54250;45.572;38.086;2024-01-15T01:35:20;3.00;;;1.73;;
67363;SDS011;54250;45.572;38.086;2024-01-15T01:37:46;3.65;;;1.67;;
67363;SDS011;54250;45.572;38.086;2024-01-15T01:40:31;2.70;;;1.33;;
67363;SDS011;54250;45.572;38.086;2024-01-15T01:42:57;2.03;;;1.10;;
67363;SDS011;54250;45.572;38.086;2024-01-15T01:45:23;1.23;;;0.90;;
67363;SDS011;54250;45.572;38.086;2024-01-15T01:50:52;1.80;;;1.35;;
67363;SDS011;54250;45.572;38.086;2024-01-15T01:53:20;1.75;;;0.73;;
67363;SDS011;54250;45.572;38.086;2024-01-15T01:55:47;4.57;;;1.60;;
67363;SDS011;54250;45.572;38.086;2024-01-15T01:58:13;0.98;;;0.90;;
67363;SDS011;54250;45.572;38.086;2024-01-15T02:00:40;4.18;;;2.03;;
67363;SDS011;54250;45.572;38.086;2024-01-15T02:03:06;1.88;;;1.52;;
67363;SDS011;54250;45.572;38.086;2024-01-15T02:05:50;1.77;;;1.10;;
67363;SDS011;54250;45.572;38.086;2024-01-15T02:11:21;1.15;;;0.93;;
67363;SDS011;54250;45.572;38.086;2024-01-15T02:13:47;3.30;;;1.52;;
67363;SDS011;54250;45.572;38.086;2024-01-15T02:16:13;1.60;;;0.90;;
67363;SDS011;54250;45.572;38.086;2024-01-15T02:18:42;0.70;;;0.70;;
67363;SDS011;54250;45.572;38.086;2024-01-15T02:21:09;1.80;;;0.98;;
67363;SDS011;54250;45.572;38.086;2024-01-15T02:23:36;0.80;;;0.63;;
67363;SDS011;54250;45.572;38.086;2024-01-15T02:26:03;0.77;;;0.77;;
67363;SDS011;54250;45.572;38.086;2024-01-15T02:28:30;0.52;;;0.50;;
67363;SDS011;54250;45.572;38.086;2024-01-15T02:31:15;0.63;;;0.63;;
67363;SDS011;54250;45.572;38.086;2024-01-15T02:34:00;1.10;;;0.50;;
67363;SDS011;54250;45.572;38.086;2024-01-15T02:36:25;2.05;;;1.10;;
67363;SDS011;54250;45.572;38.086;2024-01-15T02:38:51;5.43;;;1.05;;
67363;SDS011;54250;45.572;38.086;2024-01-15T02:41:17;1.55;;;1.45;;
67363;SDS011;54250;45.572;38.086;2024-01-15T02:43:43;1.50;;;1.40;;
67363;SDS011;54250;45.572;38.086;2024-01-15T02:46:09;1.65;;;1.10;;
67363;SDS011;54250;45.572;38.086;2024-01-15T02:48:35;4.82;;;1.23;;
67363;SDS011;54250;45.572;38.086;2024-01-15T02:51:01;1.95;;;1.60;;
67363;SDS011;54250;45.572;38.086;2024-01-15T02:53:27;2.65;;;1.20;;
67363;SDS011;54250;45.572;38.086;2024-01-15T02:55:53;2.28;;;1.80;;
67363;SDS011;54250;45.572;38.086;2024-01-15T02:58:19;1.38;;;0.85;;
67363;SDS011;54250;45.572;38.086;2024-01-15T03:00:45;6.45;;;1.63;;
67363;SDS011;54250;45.572;38.086;2024-01-15T03:03:11;1.50;;;0.90;;
67363;SDS011;54250;45.572;38.086;2024-01-15T03:05:37;3.47;;;1.48;;
67363;SDS011;54250;45.572;38.086;2024-01-15T03:08:04;1.30;;;0.55;;
67363;SDS011;54250;45.572;38.086;2024-01-15T03:10:48;3.55;;;0.90;;
67363;SDS011;54250;45.572;38.086;2024-01-15T03:16:17;4.90;;;1.67;;
67363;SDS011;54250;45.572;38.086;2024-01-15T03:18:45;0.45;;;0.43;;
67363;SDS011;54250;45.572;38.086;2024-01-15T03:21:11;10.88;;;1.23;;
67363;SDS011;54250;45.572;38.086;2024-01-15T03:23:37;1.33;;;1.05;;
67363;SDS011;54250;45.572;38.086;2024-01-15T03:26:03;3.97;;;1.65;;
67363;SDS011;54250;45.572;38.086;2024-01-15T03:28:29;2.33;;;1.05;;
67363;SDS011;54250;45.572;38.086;2024-01-15T03:30:55;7.18;;;1.02;;
67363;SDS011;54250;45.572;38.086;2024-01-15T03:33:21;2.85;;;1.23;;
67363;SDS011;54250;45.572;38.086;2024-01-15T03:35:47;5.22;;;1.80;;
67363;SDS011;54250;45.572;38.086;2024-01-15T03:38:13;10.23;;;1.40;;
67363;SDS011;54250;45.572;38.086;2024-01-15T03:40:39;1.95;;;1.15;;
67363;SDS011;54250;45.572;38.086;2024-01-15T03:43:05;0.73;;;0.73;;
67363;SDS011;54250;45.572;38.086;2024-01-15T03:45:49;3.70;;;1.60;;
67363;SDS011;54250;45.572;38.086;2024-01-15T03:48:15;1.98;;;1.35;;
67363;SDS011;54250;45.572;38.086;2024-01-15T03:50:41;1.73;;;1.08;;
67363;SDS011;54250;45.572;38.086;2024-01-15T03:53:07;1.67;;;1.17;;
67363;SDS011;54250;45.572;38.086;2024-01-15T03:55:32;14.73;;;1.38;;
67363;SDS011;54250;45.572;38.086;2024-01-15T03:57:58;2.05;;;1.50;;
67363;SDS011;54250;45.572;38.086;2024-01-15T04:00:24;1.23;;;0.98;;
67363;SDS011;54250;45.572;38.086;2024-01-15T04:02:50;2.55;;;1.30;;
67363;SDS011;54250;45.572;38.086;2024-01-15T04:05:16;2.50;;;1.63;;
67363;SDS011;54250;45.572;38.086;2024-01-15T04:08:00;3.70;;;1.50;;
67363;SDS011;54250;45.572;38.086;2024-01-15T04:10:26;2.97;;;0.98;;
67363;SDS011;54250;45.572;38.086;2024-01-15T04:12:52;6.68;;;1.15;;
67363;SDS011;54250;45.572;38.086;2024-01-15T04:15:36;5.75;;;1.63;;
67363;SDS011;54250;45.572;38.086;2024-01-15T04:18:03;2.42;;;1.15;;
67363;SDS011;54250;45.572;38.086;2024-01-15T04:20:29;1.38;;;1.15;;
67363;SDS011;54250;45.572;38.086;2024-01-15T04:22:55;1.73;;;1.02;;
67363;SDS011;54250;45.572;38.086;2024-01-15T04:25:39;2.33;;;1.23;;
67363;SDS011;54250;45.572;38.086;2024-01-15T04:28:08;1.58;;;1.10;;
67363;SDS011;54250;45.572;38.086;2024-01-15T04:30:34;1.77;;;0.95;;
67363;SDS011;54250;45.572;38.086;2024-01-15T04:33:01;3.35;;;1.35;;
67363;SDS011;54250;45.572;38.086;2024-01-15T04:38:30;1.60;;;1.33;;
67363;SDS011;54250;45.572;38.086;2024-01-15T04:43:41;7.13;;;1.00;;
67363;SDS011;54250;45.572;38.086;2024-01-15T04:46:07;3.97;;;1.00;;
67363;SDS011;54250;45.572;38.086;2024-01-15T04:48:33;1.98;;;1.52;;
67363;SDS011;54250;45.572;38.086;2024-01-15T04:51:17;2.08;;;1.63;;
67363;SDS011;54250;45.572;38.086;2024-01-15T04:53:44;7.97;;;1.65;;
67363;SDS011;54250;45.572;38.086;2024-01-15T04:56:10;3.67;;;2.20;;
67363;SDS011;54250;45.572;38.086;2024-01-15T04:58:36;7.05;;;2.97;;
67363;SDS011;54250;45.572;38.086;2024-01-15T05:01:01;5.38;;;1.88;;
67363;SDS011;54250;45.572;38.086;2024-01-15T05:03:28;4.40;;;2.58;;
67363;SDS011;54250;45.572;38.086;2024-01-15T05:05:54;4.45;;;2.15;;
67363;SDS011;54250;45.572;38.086;2024-01-15T05:11:05;8.57;;;2.33;;
67363;SDS011;54250;45.572;38.086;2024-01-15T05:13:30;4.05;;;2.75;;
67363;SDS011;54250;45.572;38.086;2024-01-15T05:18:41;4.45;;;1.20;;
67363;SDS011;54250;45.572;38.086;2024-01-15T05:21:08;6.45;;;1.98;;
67363;SDS011;54250;45.572;38.086;2024-01-15T05:23:34;8.77;;;2.15;;
67363;SDS011;54250;45.572;38.086;2024-01-15T05:26:00;5.13;;;1.63;;
67363;SDS011;54250;45.572;38.086;2024-01-15T05:28:26;3.90;;;1.70;;
67363;SDS011;54250;45.572;38.086;2024-01-15T05:30:52;4.65;;;2.03;;
67363;SDS011;54250;45.572;38.086;2024-01-15T05:33:18;2.95;;;1.77;;
67363;SDS011;54250;45.572;38.086;2024-01-15T05:35:44;3.53;;;1.80;;
67363;SDS011;54250;45.572;38.086;2024-01-15T05:38:10;4.55;;;1.83;;
67363;SDS011;54250;45.572;38.086;2024-01-15T05:40:36;9.35;;;2.10;;
67363;SDS011;54250;45.572;38.086;2024-01-15T05:43:02;2.25;;;1.75;;
67363;SDS011;54250;45.572;38.086;2024-01-15T05:45:29;8.55;;;2.67;;
67363;SDS011;54250;45.572;38.086;2024-01-15T05:47:56;5.78;;;2.58;;
67363;SDS011;54250;45.572;38.086;2024-01-15T05:50:22;3.85;;;2.22;;
67363;SDS011;54250;45.572;38.086;2024-01-15T05:52:48;16.13;;;2.88;;
67363;SDS011;54250;45.572;38.086;2024-01-15T05:55:14;4.25;;;2.08;;
67363;SDS011;54250;45.572;38.086;2024-01-15T05:57:39;6.43;;;3.00;;
67363;SDS011;54250;45.572;38.086;2024-01-15T06:00:05;8.30;;;2.03;;
67363;SDS011;54250;45.572;38.086;2024-01-15T06:03:09;7.28;;;1.98;;
67363;SDS011;54250;45.572;38.086;2024-01-15T06:05:35;1.85;;;1.05;;
67363;SDS011;54250;45.572;38.086;2024-01-15T06:08:19;4.00;;;2.25;;
67363;SDS011;54250;45.572;38.086;2024-01-15T06:10:46;3.17;;;2.17;;
67363;SDS011;54250;45.572;38.086;2024-01-15T06:13:12;3.58;;;2.55;;
67363;SDS011;54250;45.572;38.086;2024-01-15T06:15:38;5.13;;;2.00;;
67363;SDS011;54250;45.572;38.086;2024-01-15T06:18:04;3.97;;;2.30;;
67363;SDS011;54250;45.572;38.086;2024-01-15T06:20:49;4.60;;;2.97;;
67363;SDS011;54250;45.572;38.086;2024-01-15T06:23:15;3.75;;;2.40;;
67363;SDS011;54250;45.572;38.086;2024-01-15T06:25:41;2.03;;;1.08;;
67363;SDS011;54250;45.572;38.086;2024-01-15T06:28:07;2.42;;;1.25;;
67363;SDS011;54250;45.572;38.086;2024-01-15T06:30:33;2.70;;;1.90;;
67363;SDS011;54250;45.572;38.086;2024-01-15T06:32:58;7.85;;;3.38;;
67363;SDS011;54250;45.572;38.086;2024-01-15T06:35:24;3.30;;;2.67;;
67363;SDS011;54250;45.572;38.086;2024-01-15T06:37:50;5.85;;;2.45;;
67363;SDS011;54250;45.572;38.086;2024-01-15T06:40:35;3.58;;;2.53;;
67363;SDS011;54250;45.572;38.086;2024-01-15T06:43:01;4.93;;;1.33;;
67363;SDS011;54250;45.572;38.086;2024-01-15T06:45:30;3.00;;;2.13;;
67363;SDS011;54250;45.572;38.086;2024-01-15T06:47:56;3.05;;;1.55;;
67363;SDS011;54250;45.572;38.086;2024-01-15T06:50:21;1.38;;;1.20;;
67363;SDS011;54250;45.572;38.086;2024-01-15T06:52:49;2.40;;;0.75;;
67363;SDS011;54250;45.572;38.086;2024-01-15T06:55:15;8.30;;;2.83;;
67363;SDS011;54250;45.572;38.086;2024-01-15T06:57:41;11.15;;;5.65;;
67363;SDS011;54250;45.572;38.086;2024-01-15T07:00:07;10.27;;;4.95;;
67363;SDS011;54250;45.572;38.086;2024-01-15T07:02:33;5.22;;;3.17;;
67363;SDS011;54250;45.572;38.086;2024-01-15T07:04:59;7.93;;;3.30;;
67363;SDS011;54250;45.572;38.086;2024-01-15T07:07:25;4.18;;;2.70;;
67363;SDS011;54250;45.572;38.086;2024-01-15T07:09:54;5.15;;;2.97;;
67363;SDS011;54250;45.572;38.086;2024-01-15T07:12:20;5.97;;;3.00;;
67363;SDS011;54250;45.572;38.086;2024-01-15T07:14:46;3.35;;;2.47;;
67363;SDS011;54250;45.572;38.086;2024-01-15T07:17:11;12.40;;;3.97;;
67363;SDS011;54250;45.572;38.086;2024-01-15T07:19:56;12.02;;;4.20;;
67363;SDS011;54250;45.572;38.086;2024-01-15T07:22:22;11.07;;;3.65;;
67363;SDS011;54250;45.572;38.086;2024-01-15T07:24:47;4.00;;;2.47;;
67363;SDS011;54250;45.572;38.086;2024-01-15T07:27:13;4.07;;;2.55;;
67363;SDS011;54250;45.572;38.086;2024-01-15T07:29:39;5.18;;;1.90;;
67363;SDS011;54250;45.572;38.086;2024-01-15T07:32:05;3.03;;;2.17;;
67363;SDS011;54250;45.572;38.086;2024-01-15T07:34:32;4.75;;;2.17;;
67363;SDS011;54250;45.572;38.086;2024-01-15T07:36:58;5.85;;;2.08;;
67363;SDS011;54250;45.572;38.086;2024-01-15T07:39:24;5.47;;;2.30;;
67363;SDS011;54250;45.572;38.086;2024-01-15T07:41:51;4.88;;;2.33;;
67363;SDS011;54250;45.572;38.086;2024-01-15T07:44:35;3.33;;;1.90;;
67363;SDS011;54250;45.572;38.086;2024-01-15T07:47:01;3.80;;;2.30;;
67363;SDS011;54250;45.572;38.086;2024-01-15T07:49:27;11.57;;;3.50;;
67363;SDS011;54250;45.572;38.086;2024-01-15T07:51:53;10.23;;;4.70;;
67363;SDS011;54250;45.572;38.086;2024-01-15T07:54:37;9.63;;;6.00;;
67363;SDS011;54250;45.572;38.086;2024-01-15T07:57:03;10.10;;;6.13;;
67363;SDS011;54250;45.572;38.086;2024-01-15T07:59:29;13.00;;;7.43;;
67363;SDS011;54250;45.572;38.086;2024-01-15T08:01:55;9.85;;;6.10;;
67363;SDS011;54250;45.572;38.086;2024-01-15T08:04:21;7.88;;;5.03;;
67363;SDS011;54250;45.572;38.086;2024-01-15T08:06:47;8.45;;;4.43;;
67363;SDS011;54250;45.572;38.086;2024-01-15T08:09:13;14.50;;;7.90;;
67363;SDS011;54250;45.572;38.086;2024-01-15T08:11:39;13.55;;;7.10;;
67363;SDS011;54250;45.572;38.086;2024-01-15T08:14:27;8.68;;;5.63;;
67363;SDS011;54250;45.572;38.086;2024-01-15T08:16:53;7.95;;;3.95;;
67363;SDS011;54250;45.572;38.086;2024-01-15T08:22:06;6.15;;;3.88;;
67363;SDS011;54250;45.572;38.086;2024-01-15T08:24:32;8.30;;;4.40;;
67363;SDS011;54250;45.572;38.086;2024-01-15T08:26:58;11.20;;;4.00;;
67363;SDS011;54250;45.572;38.086;2024-01-15T08:32:10;11.90;;;4.90;;
67363;SDS011;54250;45.572;38.086;2024-01-15T08:34:39;9.65;;;4.78;;
67363;SDS011;54250;45.572;38.086;2024-01-15T08:37:05;8.57;;;3.67;;
67363;SDS011;54250;45.572;38.086;2024-01-15T08:39:31;8.18;;;3.60;;
67363;SDS011;54250;45.572;38.086;2024-01-15T08:41:57;5.30;;;3.10;;
67363;SDS011;54250;45.572;38.086;2024-01-15T08:44:23;4.05;;;2.72;;
67363;SDS011;54250;45.572;38.086;2024-01-15T08:46:49;6.22;;;3.28;;
67363;SDS011;54250;45.572;38.086;2024-01-15T08:49:15;5.22;;;3.10;;
67363;SDS011;54250;45.572;38.086;2024-01-15T08:51:41;4.45;;;2.53;;
67363;SDS011;54250;45.572;38.086;2024-01-15T08:54:07;6.45;;;2.05;;
67363;SDS011;54250;45.572;38.086;2024-01-15T08:56:33;4.80;;;2.75;;
67363;SDS011;54250;45.572;38.086;2024-01-15T08:58:59;3.38;;;1.75;;
67363;SDS011;54250;45.572;38.086;2024-01-15T09:01:26;3.47;;;1.95;;
67363;SDS011;54250;45.572;38.086;2024-01-15T09:03:51;5.60;;;2.22;;
67363;SDS011;54250;45.572;38.086;2024-01-15T09:06:17;5.10;;;2.28;;
67363;SDS011;54250;45.572;38.086;2024-01-15T09:08:44;4.20;;;1.80;;
67363;SDS011;54250;45.572;38.086;2024-01-15T09:11:10;3.55;;;1.50;;
67363;SDS011;54250;45.572;38.086;2024-01-15T09:13:36;1.30;;;1.10;;
67363;SDS011;54250;45.572;38.086;2024-01-15T09:16:20;3.08;;;1.48;;
67363;SDS011;54250;45.572;38.086;2024-01-15T09:18:46;2.17;;;1.65;;
67363;SDS011;54250;45.572;38.086;2024-01-15T09:21:12;0.80;;;0.80;;
67363;SDS011;54250;45.572;38.086;2024-01-15T09:23:38;1.42;;;1.15;;
67363;SDS011;54250;45.572;38.086;2024-01-15T09:26:04;4.60;;;2.38;;
67363;SDS011;54250;45.572;38.086;2024-01-15T09:28:30;4.13;;;2.83;;
67363;SDS011;54250;45.572;38.086;2024-01-15T09:30:55;5.53;;;2.47;;
67363;SDS011;54250;45.572;38.086;2024-01-15T09:33:21;6.80;;;3.08;;
67363;SDS011;54250;45.572;38.086;2024-01-15T09:35:47;6.32;;;2.00;;
67363;SDS011;54250;45.572;38.086;2024-01-15T09:38:13;3.55;;;1.95;;
67363;SDS011;54250;45.572;38.086;2024-01-15T09:40:39;9.40;;;3.03;;
67363;SDS011;54250;45.572;38.086;2024-01-15T09:43:08;3.05;;;2.15;;
67363;SDS011;54250;45.572;38.086;2024-01-15T09:45:35;4.40;;;2.30;;
67363;SDS011;54250;45.572;38.086;2024-01-15T09:48:01;4.85;;;2.10;;
67363;SDS011;54250;45.572;38.086;2024-01-15T09:50:27;3.35;;;1.45;;
67363;SDS011;54250;45.572;38.086;2024-01-15T09:52:53;4.88;;;2.45;;
67363;SDS011;54250;45.572;38.086;2024-01-15T09:55:22;3.72;;;1.73;;
67363;SDS011;54250;45.572;38.086;2024-01-15T09:57:48;3.00;;;2.55;;
67363;SDS011;54250;45.572;38.086;2024-01-15T10:00:18;2.78;;;1.77;;
67363;SDS011;54250;45.572;38.086;2024-01-15T10:02:46;4.25;;;2.28;;
67363;SDS011;54250;45.572;38.086;2024-01-15T10:05:12;1.80;;;1.08;;
67363;SDS011;54250;45.572;38.086;2024-01-15T10:07:38;4.72;;;2.28;;
67363;SDS011;54250;45.572;38.086;2024-01-15T10:10:05;3.45;;;1.60;;
67363;SDS011;54250;45.572;38.086;2024-01-15T10:12:32;3.90;;;2.40;;
67363;SDS011;54250;45.572;38.086;2024-01-15T10:14:58;6.35;;;2.25;;
67363;SDS011;54250;45.572;38.086;2024-01-15T10:17:24;5.13;;;2.67;;
67363;SDS011;54250;45.572;38.086;2024-01-15T10:19:53;2.22;;;1.67;;
67363;SDS011;54250;45.572;38.086;2024-01-15T10:22:41;3.05;;;2.10;;
67363;SDS011;54250;45.572;38.086;2024-01-15T10:25:16;6.55;;;2.45;;
67363;SDS011;54250;45.572;38.086;2024-01-15T10:28:01;7.13;;;3.60;;
67363;SDS011;54250;45.572;38.086;2024-01-15T10:30:31;4.57;;;2.95;;
67363;SDS011;54250;45.572;38.086;2024-01-15T10:32:58;5.35;;;2.72;;
67363;SDS011;54250;45.572;38.086;2024-01-15T10:35:33;6.03;;;2.42;;
67363;SDS011;54250;45.572;38.086;2024-01-15T10:38:00;15.73;;;5.35;;
67363;SDS011;54250;45.572;38.086;2024-01-15T10:40:26;5.80;;;3.25;;
67363;SDS011;54250;45.572;38.086;2024-01-15T10:42:52;5.45;;;2.17;;
67363;SDS011;54250;45.572;38.086;2024-01-15T10:45:18;9.50;;;3.47;;
67363;SDS011;54250;45.572;38.086;2024-01-15T10:47:44;4.47;;;2.75;;
67363;SDS011;54250;45.572;38.086;2024-01-15T10:50:11;11.35;;;5.25;;
67363;SDS011;54250;45.572;38.086;2024-01-15T10:52:38;7.45;;;2.15;;
67363;SDS011;54250;45.572;38.086;2024-01-15T10:55:09;4.18;;;2.33;;
67363;SDS011;54250;45.572;38.086;2024-01-15T10:57:36;4.05;;;2.70;;
67363;SDS011;54250;45.572;38.086;2024-01-15T11:00:03;10.90;;;4.90;;
67363;SDS011;54250;45.572;38.086;2024-01-15T11:02:35;7.07;;;3.15;;
67363;SDS011;54250;45.572;38.086;2024-01-15T11:05:02;7.70;;;3.72;;
67363;SDS011;54250;45.572;38.086;2024-01-15T11:07:30;5.30;;;2.58;;
67363;SDS011;54250;45.572;38.086;2024-01-15T11:18:34;5.28;;;2.95;;
67363;SDS011;54250;45.572;38.086;2024-01-15T11:21:20;5.00;;;3.08;;
67363;SDS011;54250;45.572;38.086;2024-01-15T11:23:47;7.25;;;3.28;;
67363;SDS011;54250;45.572;38.086;2024-01-15T11:37:20;7.07;;;3.40;;
67363;SDS011;54250;45.572;38.086;2024-01-15T11:39:50;7.47;;;3.00;;
67363;SDS011;54250;45.572;38.086;2024-01-15T11:42:17;6.65;;;3.15;;
67363;SDS011;54250;45.572;38.086;2024-01-15T11:44:45;11.30;;;3.78;;
67363;SDS011;54250;45.572;38.086;2024-01-15T11:47:12;6.53;;;3.55;;
67363;SDS011;54250;45.572;38.086;2024-01-15T11:52:34;7.68;;;3.42;;
67363;SDS011;54250;45.572;38.086;2024-01-15T12:00:28;8.32;;;2.67;;
67363;SDS011;54250;45.572;38.086;2024-01-15T12:02:54;8.05;;;3.58;;
67363;SDS011;54250;45.572;38.086;2024-01-15T12:05:22;8.30;;;3.70;;
67363;SDS011;54250;45.572;38.086;2024-01-15T12:07:49;10.95;;;3.78;;
67363;SDS011;54250;45.572;38.086;2024-01-15T12:10:19;6.82;;;3.30;;
67363;SDS011;54250;45.572;38.086;2024-01-15T12:13:19;8.52;;;3.90;;
67363;SDS011;54250;45.572;38.086;2024-01-15T12:15:57;8.23;;;2.80;;
67363;SDS011;54250;45.572;38.086;2024-01-15T12:18:23;16.50;;;3.47;;
67363;SDS011;54250;45.572;38.086;2024-01-15T12:20:52;12.57;;;3.78;;
67363;SDS011;54250;45.572;38.086;2024-01-15T12:23:38;7.20;;;3.72;;
67363;SDS011;54250;45.572;38.086;2024-01-15T12:26:05;6.93;;;3.47;;
67363;SDS011;54250;45.572;38.086;2024-01-15T12:28:52;14.80;;;4.13;;
67363;SDS011;54250;45.572;38.086;2024-01-15T12:31:19;8.52;;;3.55;;
67363;SDS011;54250;45.572;38.086;2024-01-15T12:33:45;15.93;;;3.20;;
67363;SDS011;54250;45.572;38.086;2024-01-15T12:36:12;5.32;;;2.88;;
67363;SDS011;54250;45.572;38.086;2024-01-15T12:38:38;8.13;;;2.75;;
67363;SDS011;54250;45.572;38.086;2024-01-15T12:41:04;7.97;;;3.20;;
67363;SDS011;54250;45.572;38.086;2024-01-15T12:43:30;6.07;;;3.00;;
67363;SDS011;54250;45.572;38.086;2024-01-15T12:45:56;7.60;;;3.85;;
67363;SDS011;54250;45.572;38.086;2024-01-15T12:48:22;6.32;;;3.70;;
67363;SDS011;54250;45.572;38.086;2024-01-15T12:50:48;8.57;;;3.72;;
67363;SDS011;54250;45.572;38.086;2024-01-15T12:53:14;16.92;;;3.83;;
67363;SDS011;54250;45.572;38.086;2024-01-15T12:55:40;7.25;;;3.13;;
67363;SDS011;54250;45.572;38.086;2024-01-15T12:58:06;6.68;;;3.00;;
67363;SDS011;54250;45.572;38.086;2024-01-15T13:00:32;10.40;;;3.08;;
67363;SDS011;54250;45.572;38.086;2024-01-15T13:02:58;11.55;;;3.10;;
67363;SDS011;54250;45.572;38.086;2024-01-15T13:05:25;13.73;;;3.25;;
67363;SDS011;54250;45.572;38.086;2024-01-15T13:07:52;20.17;;;3.97;;
67363;SDS011;54250;45.572;38.086;2024-01-15T13:10:18;8.13;;;3.95;;
67363;SDS011;54250;45.572;38.086;2024-01-15T13:12:44;16.38;;;4.38;;
67363;SDS011;54250;45.572;38.086;2024-01-15T13:15:10;5.78;;;3.67;;
67363;SDS011;54250;45.572;38.086;2024-01-15T13:17:37;15.60;;;3.83;;
67363;SDS011;54250;45.572;38.086;2024-01-15T13:20:06;9.27;;;3.97;;
67363;SDS011;54250;45.572;38.086;2024-01-15T13:22:33;13.73;;;4.65;;
67363;SDS011;54250;45.572;38.086;2024-01-15T13:24:58;6.43;;;3.53;;
67363;SDS011;54250;45.572;38.086;2024-01-15T13:27:24;2.80;;;1.92;;
67363;SDS011;54250;45.572;38.086;2024-01-15T13:29:50;7.47;;;2.95;;
67363;SDS011;54250;45.572;38.086;2024-01-15T13:32:17;3.92;;;1.95;;
67363;SDS011;54250;45.572;38.086;2024-01-15T13:34:49;3.63;;;2.60;;
67363;SDS011;54250;45.572;38.086;2024-01-15T13:37:15;19.50;;;3.35;;
67363;SDS011;54250;45.572;38.086;2024-01-15T13:39:41;3.28;;;2.50;;
67363;SDS011;54250;45.572;38.086;2024-01-15T13:42:07;4.72;;;2.70;;
67363;SDS011;54250;45.572;38.086;2024-01-15T13:44:33;4.97;;;2.30;;
67363;SDS011;54250;45.572;38.086;2024-01-15T13:46:59;8.43;;;3.00;;
67363;SDS011;54250;45.572;38.086;2024-01-15T13:49:25;7.57;;;3.40;;
67363;SDS011;54250;45.572;38.086;2024-01-15T13:52:09;2.65;;;1.98;;
67363;SDS011;54250;45.572;38.086;2024-01-15T13:54:35;12.52;;;3.85;;
67363;SDS011;54250;45.572;38.086;2024-01-15T13:57:01;7.70;;;2.72;;
67363;SDS011;54250;45.572;38.086;2024-01-15T13:59:27;3.20;;;2.03;;
67363;SDS011;54250;45.572;38.086;2024-01-15T14:01:52;4.88;;;2.15;;
67363;SDS011;54250;45.572;38.086;2024-01-15T14:04:18;3.75;;;1.88;;
67363;SDS011;54250;45.572;38.086;2024-01-15T14:06:44;2.17;;;1.40;;
67363;SDS011;54250;45.572;38.086;2024-01-15T14:09:10;4.80;;;2.67;;
67363;SDS011;54250;45.572;38.086;2024-01-15T14:11:39;1.55;;;1.13;;
67363;SDS011;54250;45.572;38.086;2024-01-15T14:14:06;5.15;;;2.03;;
67363;SDS011;54250;45.572;38.086;2024-01-15T14:16:34;4.78;;;1.75;;
67363;SDS011;54250;45.572;38.086;2024-01-15T14:18:59;6.80;;;2.72;;
67363;SDS011;54250;45.572;38.086;2024-01-15T14:21:27;2.63;;;1.67;;
67363;SDS011;54250;45.572;38.086;2024-01-15T14:23:53;3.55;;;2.58;;
67363;SDS011;54250;45.572;38.086;2024-01-15T14:26:19;2.67;;;2.38;;
67363;SDS011;54250;45.572;38.086;2024-01-15T14:28:45;4.90;;;2.33;;
67363;SDS011;54250;45.572;38.086;2024-01-15T14:31:12;3.40;;;2.50;;
67363;SDS011;54250;45.572;38.086;2024-01-15T14:33:38;1.52;;;1.35;;
67363;SDS011;54250;45.572;38.086;2024-01-15T14:36:04;2.67;;;1.60;;
67363;SDS011;54250;45.572;38.086;2024-01-15T14:38:30;4.10;;;2.55;;
67363;SDS011;54250;45.572;38.086;2024-01-15T14:40:56;10.38;;;3.10;;
67363;SDS011;54250;45.572;38.086;2024-01-15T14:43:41;7.03;;;2.15;;
67363;SDS011;54250;45.572;38.086;2024-01-15T14:46:06;3.60;;;2.10;;
67363;SDS011;54250;45.572;38.086;2024-01-15T14:48:32;9.00;;;2.95;;
67363;SDS011;54250;45.572;38.086;2024-01-15T14:50:58;5.28;;;2.60;;
67363;SDS011;54250;45.572;38.086;2024-01-15T14:53:24;9.20;;;2.65;;
67363;SDS011;54250;45.572;38.086;2024-01-15T14:55:50;7.35;;;2.65;;
67363;SDS011;54250;45.572;38.086;2024-01-15T14:58:16;10.05;;;3.70;;
67363;SDS011;54250;45.572;38.086;2024-01-15T15:00:41;10.30;;;3.90;;
67363;SDS011;54250;45.572;38.086;2024-01-15T15:03:07;5.13;;;2.53;;
67363;SDS011;54250;45.572;38.086;2024-01-15T15:05:34;7.50;;;2.45;;
67363;SDS011;54250;45.572;38.086;2024-01-15T15:08:00;5.28;;;2.55;;
67363;SDS011;54250;45.572;38.086;2024-01-15T15:10:25;11.07;;;3.47;;
67363;SDS011;54250;45.572;38.086;2024-01-15T15:12:52;13.25;;;1.98;;
67363;SDS011;54250;45.572;38.086;2024-01-15T15:15:17;5.45;;;2.80;;
67363;SDS011;54250;45.572;38.086;2024-01-15T15:17:44;7.90;;;2.70;;
67363;SDS011;54250;45.572;38.086;2024-01-15T15:20:10;3.00;;;2.13;;
67363;SDS011;54250;45.572;38.086;2024-01-15T15:22:36;3.92;;;2.53;;
67363;SDS011;54250;45.572;38.086;2024-01-15T15:25:02;4.72;;;2.53;;
67363;SDS011;54250;45.572;38.086;2024-01-15T15:27:28;4.60;;;2.70;;
67363;SDS011;54250;45.572;38.086;2024-01-15T15:29:54;2.90;;;1.70;;
67363;SDS011;54250;45.572;38.086;2024-01-15T15:32:20;6.57;;;3.05;;
67363;SDS011;54250;45.572;38.086;2024-01-15T15:34:46;9.55;;;2.10;;
67363;SDS011;54250;45.572;38.086;2024-01-15T15:37:12;8.07;;;2.70;;